sensor_id;sensor_type;location;lat;lon;timestamp;pressure;altitude;pressure_sealevel;temperature;humidity
59829;BME280;45708;51.848;107.620;2023-02-02T00:00:40;95769.84;;;-23.26;66.47
59829;BME280;45708;51.848;107.620;2023-02-02T00:05:46;95772.38;;;-23.37;66.36
59829;BME280;45708;51.848;107.620;2023-02-02T00:10:47;95764.06;;;-23.47;66.91
59829;BME280;45708;51.848;107.620;2023-02-02T00:15:47;95781.56;;;-23.50;66.67
59829;BME280;45708;51.848;107.620;2023-02-02T00:20:49;95764.88;;;-23.48;67.21
59829;BME280;45708;51.848;107.620;2023-02-02T00:25:50;95781.56;;;-23.36;66.43
59829;BME280;45708;51.848;107.620;2023-02-02T00:30:51;95784.03;;;-23.25;66.58
59829;BME280;45708;51.848;107.620;2023-02-02T00:35:52;95779.88;;;-23.22;66.36
59829;BME280;45708;51.848;107.620;2023-02-02T00:40:52;95776.53;;;-23.19;66.41
59829;BME280;45708;51.848;107.620;2023-02-02T00:45:55;95792.34;;;-23.08;66.81
59829;BME280;45708;51.848;107.620;2023-02-02T00:50:56;95780.66;;;-22.97;66.44
59829;BME280;45708;51.848;107.620;2023-02-02T00:55:56;95781.47;;;-22.95;66.71
59829;BME280;45708;51.848;107.620;2023-02-02T01:00:57;95779.81;;;-22.93;66.58
59829;BME280;45708;51.848;107.620;2023-02-02T01:05:58;95781.44;;;-22.86;66.63
59829;BME280;45708;51.848;107.620;2023-02-02T01:10:59;95789.75;;;-22.84;66.49
59829;BME280;45708;51.848;107.620;2023-02-02T01:16:01;95782.28;;;-22.91;66.41
59829;BME280;45708;51.848;107.620;2023-02-02T01:21:05;95798.03;;;-22.69;66.18
59829;BME280;45708;51.848;107.620;2023-02-02T01:26:08;95798.84;;;-22.55;65.81
59829;BME280;45708;51.848;107.620;2023-02-02T01:31:12;95793.78;;;-22.46;65.79
59829;BME280;45708;51.848;107.620;2023-02-02T01:36:16;95751.38;;;-22.76;65.68
59829;BME280;45708;51.848;107.620;2023-02-02T01:41:20;95793.78;;;-22.41;65.32
59829;BME280;45708;51.848;107.620;2023-02-02T01:46:32;95797.88;;;-22.28;65.60
59829;BME280;45708;51.848;107.620;2023-02-02T01:51:39;95796.13;;;-22.12;64.85
59829;BME280;45708;51.848;107.620;2023-02-02T01:56:46;95791.06;;;-22.06;64.79
59829;BME280;45708;51.848;107.620;2023-02-02T02:01:49;95789.28;;;-21.89;65.30
59829;BME280;45708;51.848;107.620;2023-02-02T02:06:52;95778.22;;;-21.59;64.58
59829;BME280;45708;51.848;107.620;2023-02-02T02:11:53;95744.78;;;-21.58;64.81
59829;BME280;45708;51.848;107.620;2023-02-02T02:22:15;95776.28;;;-20.50;64.20
59829;BME280;45708;51.848;107.620;2023-02-02T02:43:40;95758.53;;;-19.25;62.19
59829;BME280;45708;51.848;107.620;2023-02-02T02:48:46;95764.25;;;-19.16;61.04
59829;BME280;45708;51.848;107.620;2023-02-02T02:53:48;95757.56;;;-19.17;61.00
59829;BME280;45708;51.848;107.620;2023-02-02T02:58:56;95768.13;;;-19.47;60.18
59829;BME280;45708;51.848;107.620;2023-02-02T03:04:11;95769.97;;;-19.55;60.90
59829;BME280;45708;51.848;107.620;2023-02-02T03:09:21;95767.72;;;-19.23;61.34
59829;BME280;45708;51.848;107.620;2023-02-02T03:14:22;95755.28;;;-18.84;60.48
59829;BME280;45708;51.848;107.620;2023-02-02T03:19:23;95753.09;;;-18.56;61.25
59829;BME280;45708;51.848;107.620;2023-02-02T03:24:24;95734.28;;;-18.00;60.91
59829;BME280;45708;51.848;107.620;2023-02-02T03:29:25;95743.97;;;-17.12;60.97
59829;BME280;45708;51.848;107.620;2023-02-02T03:34:27;95740.16;;;-16.32;59.94
59829;BME280;45708;51.848;107.620;2023-02-02T03:39:27;95749.22;;;-15.66;59.49
59829;BME280;45708;51.848;107.620;2023-02-02T03:44:28;95737.53;;;-15.17;59.47
59829;BME280;45708;51.848;107.620;2023-02-02T03:49:29;95721.97;;;-14.80;59.51
59829;BME280;45708;51.848;107.620;2023-02-02T03:54:30;95710.53;;;-14.43;57.22
59829;BME280;45708;51.848;107.620;2023-02-02T03:59:31;95711.25;;;-14.40;57.97
59829;BME280;45708;51.848;107.620;2023-02-02T04:04:32;95704.94;;;-14.30;57.01
59829;BME280;45708;51.848;107.620;2023-02-02T04:09:33;95701.19;;;-14.66;55.54
59829;BME280;45708;51.848;107.620;2023-02-02T04:14:33;95699.59;;;-14.69;57.09
59829;BME280;45708;51.848;107.620;2023-02-02T04:19:34;95698.47;;;-14.60;56.57
59829;BME280;45708;51.848;107.620;2023-02-02T04:24:35;95682.28;;;-14.11;56.74
59829;BME280;45708;51.848;107.620;2023-02-02T04:29:36;95673.47;;;-13.79;56.01
59829;BME280;45708;51.848;107.620;2023-02-02T04:34:36;95671.88;;;-13.60;55.85
59829;BME280;45708;51.848;107.620;2023-02-02T04:39:37;95669.53;;;-13.66;55.40
59829;BME280;45708;51.848;107.620;2023-02-02T04:44:38;95665.16;;;-13.40;55.06
59829;BME280;45708;51.848;107.620;2023-02-02T04:49:39;95665.41;;;-13.06;53.84
59829;BME280;45708;51.848;107.620;2023-02-02T04:54:40;95655.09;;;-12.82;54.02
59829;BME280;45708;51.848;107.620;2023-02-02T04:59:40;95650.16;;;-13.06;53.80
59829;BME280;45708;51.848;107.620;2023-02-02T05:04:41;95642.41;;;-13.23;52.98
59829;BME280;45708;51.848;107.620;2023-02-02T05:09:42;95647.78;;;-13.51;53.26
59829;BME280;45708;51.848;107.620;2023-02-02T05:14:43;95646.16;;;-13.74;53.86
59829;BME280;45708;51.848;107.620;2023-02-02T05:19:44;95642.22;;;-13.81;53.16
59829;BME280;45708;51.848;107.620;2023-02-02T05:24:44;95635.00;;;-13.92;52.91
59829;BME280;45708;51.848;107.620;2023-02-02T05:29:46;95630.09;;;-13.96;53.28
59829;BME280;45708;51.848;107.620;2023-02-02T05:34:47;95618.63;;;-13.85;52.74
59829;BME280;45708;51.848;107.620;2023-02-02T05:39:48;95618.06;;;-13.91;52.69
59829;BME280;45708;51.848;107.620;2023-02-02T05:44:48;95625.47;;;-13.65;53.97
59829;BME280;45708;51.848;107.620;2023-02-02T05:49:49;95610.25;;;-13.44;53.68
59829;BME280;45708;51.848;107.620;2023-02-02T05:54:50;95595.78;;;-13.22;52.91
59829;BME280;45708;51.848;107.620;2023-02-02T05:59:51;95584.63;;;-12.99;53.32
59829;BME280;45708;51.848;107.620;2023-02-02T06:04:52;95580.78;;;-12.89;53.34
59829;BME280;45708;51.848;107.620;2023-02-02T06:09:53;95575.56;;;-12.86;52.72
59829;BME280;45708;51.848;107.620;2023-02-02T06:14:54;95571.94;;;-12.80;52.17
59829;BME280;45708;51.848;107.620;2023-02-02T06:19:54;95562.13;;;-12.69;52.54
59829;BME280;45708;51.848;107.620;2023-02-02T06:24:55;95556.50;;;-12.57;52.08
59829;BME280;45708;51.848;107.620;2023-02-02T06:29:56;95556.06;;;-12.67;52.16
59829;BME280;45708;51.848;107.620;2023-02-02T06:34:57;95551.47;;;-12.77;52.27
59829;BME280;45708;51.848;107.620;2023-02-02T06:39:59;95531.13;;;-12.77;52.62
59829;BME280;45708;51.848;107.620;2023-02-02T06:44:59;95533.22;;;-12.68;52.45
59829;BME280;45708;51.848;107.620;2023-02-02T06:50:03;95530.88;;;-12.92;51.98
59829;BME280;45708;51.848;107.620;2023-02-02T06:55:04;95534.19;;;-12.90;52.28
59829;BME280;45708;51.848;107.620;2023-02-02T07:00:05;95528.53;;;-13.15;52.46
59829;BME280;45708;51.848;107.620;2023-02-02T07:05:07;95530.97;;;-13.32;52.93
59829;BME280;45708;51.848;107.620;2023-02-02T07:10:08;95517.88;;;-13.43;53.20
59829;BME280;45708;51.848;107.620;2023-02-02T07:15:09;95529.69;;;-13.42;53.35
59829;BME280;45708;51.848;107.620;2023-02-02T07:20:10;95533.03;;;-13.40;52.35
59829;BME280;45708;51.848;107.620;2023-02-02T07:25:11;95534.91;;;-13.45;53.54
59829;BME280;45708;51.848;107.620;2023-02-02T07:30:12;95538.47;;;-13.49;53.54
59829;BME280;45708;51.848;107.620;2023-02-02T07:35:15;95534.78;;;-13.42;53.18
59829;BME280;45708;51.848;107.620;2023-02-02T07:40:16;95524.94;;;-13.30;53.54
59829;BME280;45708;51.848;107.620;2023-02-02T07:45:17;95533.06;;;-13.22;53.23
59829;BME280;45708;51.848;107.620;2023-02-02T07:50:17;95526.28;;;-13.21;52.99
59829;BME280;45708;51.848;107.620;2023-02-02T07:55:18;95521.13;;;-13.19;53.63
59829;BME280;45708;51.848;107.620;2023-02-02T08:00:20;95528.59;;;-13.16;53.19
59829;BME280;45708;51.848;107.620;2023-02-02T08:05:21;95528.72;;;-13.38;53.70
59829;BME280;45708;51.848;107.620;2023-02-02T08:10:22;95518.41;;;-13.56;54.13
59829;BME280;45708;51.848;107.620;2023-02-02T08:15:22;95514.28;;;-13.58;54.37
59829;BME280;45708;51.848;107.620;2023-02-02T08:20:23;95508.47;;;-13.60;54.43
59829;BME280;45708;51.848;107.620;2023-02-02T08:25:24;95509.91;;;-13.55;54.72
59829;BME280;45708;51.848;107.620;2023-02-02T08:30:25;95516.84;;;-13.58;55.03
59829;BME280;45708;51.848;107.620;2023-02-02T08:35:26;95504.28;;;-13.61;54.18
59829;BME280;45708;51.848;107.620;2023-02-02T08:40:27;95517.81;;;-13.62;54.68
59829;BME280;45708;51.848;107.620;2023-02-02T08:45:29;95502.28;;;-13.75;55.34
59829;BME280;45708;51.848;107.620;2023-02-02T08:50:30;95515.28;;;-13.83;55.57
59829;BME280;45708;51.848;107.620;2023-02-02T08:55:34;95505.03;;;-14.01;55.84
59829;BME280;45708;51.848;107.620;2023-02-02T09:00:34;95506.25;;;-14.10;55.67
59829;BME280;45708;51.848;107.620;2023-02-02T09:05:35;95500.81;;;-14.23;55.75
59829;BME280;45708;51.848;107.620;2023-02-02T09:10:37;95498.13;;;-14.40;55.45
59829;BME280;45708;51.848;107.620;2023-02-02T09:15:38;95506.88;;;-14.47;56.91
59829;BME280;45708;51.848;107.620;2023-02-02T09:20:38;95513.47;;;-14.65;55.30
59829;BME280;45708;51.848;107.620;2023-02-02T09:25:39;95511.47;;;-14.79;55.78
59829;BME280;45708;51.848;107.620;2023-02-02T09:30:40;95508.38;;;-14.87;56.45
59829;BME280;45708;51.848;107.620;2023-02-02T09:35:41;95515.56;;;-14.98;57.38
59829;BME280;45708;51.848;107.620;2023-02-02T09:40:42;95518.09;;;-15.21;56.50
59829;BME280;45708;51.848;107.620;2023-02-02T09:45:56;95515.53;;;-15.45;57.20
59829;BME280;45708;51.848;107.620;2023-02-02T09:51:05;95520.38;;;-15.62;56.92
59829;BME280;45708;51.848;107.620;2023-02-02T09:56:17;95525.81;;;-15.73;57.94
59829;BME280;45708;51.848;107.620;2023-02-02T10:01:25;95526.34;;;-15.89;57.87
59829;BME280;45708;51.848;107.620;2023-02-02T10:06:35;95522.38;;;-15.96;57.81
59829;BME280;45708;51.848;107.620;2023-02-02T10:12:02;95524.22;;;-16.02;57.72
59829;BME280;45708;51.848;107.620;2023-02-02T10:17:37;95529.59;;;-16.11;57.70
59829;BME280;45708;51.848;107.620;2023-02-02T10:22:40;95532.31;;;-16.17;58.25
59829;BME280;45708;51.848;107.620;2023-02-02T10:38:46;95554.75;;;-16.61;58.58
59829;BME280;45708;51.848;107.620;2023-02-02T10:44:29;95551.50;;;-16.66;58.76
59829;BME280;45708;51.848;107.620;2023-02-02T10:49:34;95545.06;;;-16.74;58.82
59829;BME280;45708;51.848;107.620;2023-02-02T11:00:32;95572.91;;;-16.76;59.17
59829;BME280;45708;51.848;107.620;2023-02-02T11:05:37;95571.94;;;-16.72;58.89
59829;BME280;45708;51.848;107.620;2023-02-02T11:10:37;95577.88;;;-16.73;59.41
59829;BME280;45708;51.848;107.620;2023-02-02T11:15:38;95569.56;;;-16.76;59.43
59829;BME280;45708;51.848;107.620;2023-02-02T11:20:39;95567.06;;;-16.78;59.75
59829;BME280;45708;51.848;107.620;2023-02-02T11:25:41;95583.88;;;-16.77;59.98
59829;BME280;45708;51.848;107.620;2023-02-02T11:30:46;95581.50;;;-16.83;59.79
59829;BME280;45708;51.848;107.620;2023-02-02T11:36:00;95592.84;;;-16.96;59.87
59829;BME280;45708;51.848;107.620;2023-02-02T11:41:04;95581.25;;;-17.03;60.01
59829;BME280;45708;51.848;107.620;2023-02-02T11:46:16;95587.88;;;-16.99;60.24
59829;BME280;45708;51.848;107.620;2023-02-02T11:51:22;95576.91;;;-16.98;60.71
59829;BME280;45708;51.848;107.620;2023-02-02T11:56:24;95572.88;;;-17.05;60.25
59829;BME280;45708;51.848;107.620;2023-02-02T12:01:32;95587.56;;;-17.18;60.30
59829;BME280;45708;51.848;107.620;2023-02-02T12:06:36;95591.88;;;-17.21;61.07
59829;BME280;45708;51.848;107.620;2023-02-02T12:44:21;95574.38;;;-17.29;60.64
59829;BME280;45708;51.848;107.620;2023-02-02T12:55:13;95587.06;;;-17.96;61.78
59829;BME280;45708;51.848;107.620;2023-02-02T13:00:26;95587.13;;;-17.99;61.89
59829;BME280;45708;51.848;107.620;2023-02-02T13:11:07;95576.63;;;-18.53;61.95
59829;BME280;45708;51.848;107.620;2023-02-02T13:16:11;95579.50;;;-19.09;62.26
59829;BME280;45708;51.848;107.620;2023-02-02T13:21:14;95586.81;;;-19.38;63.15
59829;BME280;45708;51.848;107.620;2023-02-02T13:26:30;95578.47;;;-19.40;62.48
59829;BME280;45708;51.848;107.620;2023-02-02T13:37:05;95606.47;;;-19.57;63.13
59829;BME280;45708;51.848;107.620;2023-02-02T13:42:20;95610.72;;;-19.60;63.29
59829;BME280;45708;51.848;107.620;2023-02-02T13:47:37;95604.75;;;-19.55;62.69
59829;BME280;45708;51.848;107.620;2023-02-02T14:03:40;95598.53;;;-19.37;62.72
59829;BME280;45708;51.848;107.620;2023-02-02T14:08:44;95609.50;;;-19.43;63.58
59829;BME280;45708;51.848;107.620;2023-02-02T14:13:52;95603.84;;;-19.52;62.76
59829;BME280;45708;51.848;107.620;2023-02-02T14:18:54;95608.97;;;-19.55;62.88
59829;BME280;45708;51.848;107.620;2023-02-02T14:24:03;95619.16;;;-19.64;63.60
59829;BME280;45708;51.848;107.620;2023-02-02T14:29:24;95619.13;;;-19.61;63.07
59829;BME280;45708;51.848;107.620;2023-02-02T14:34:43;95619.16;;;-19.64;63.00
59829;BME280;45708;51.848;107.620;2023-02-02T14:45:24;95615.91;;;-19.25;63.11
59829;BME280;45708;51.848;107.620;2023-02-02T14:50:39;95605.66;;;-19.16;63.55
59829;BME280;45708;51.848;107.620;2023-02-02T14:56:00;95602.97;;;-19.06;63.34
59829;BME280;45708;51.848;107.620;2023-02-02T15:01:30;95597.03;;;-19.04;63.57
59829;BME280;45708;51.848;107.620;2023-02-02T15:06:35;95602.72;;;-18.94;63.53
59829;BME280;45708;51.848;107.620;2023-02-02T15:17:11;95588.88;;;-19.15;63.17
59829;BME280;45708;51.848;107.620;2023-02-02T15:22:25;95591.50;;;-19.20;64.36
59829;BME280;45708;51.848;107.620;2023-02-02T15:27:31;95582.38;;;-19.27;63.97
59829;BME280;45708;51.848;107.620;2023-02-02T15:32:32;95587.59;;;-19.36;63.26
59829;BME280;45708;51.848;107.620;2023-02-02T15:37:36;95579.25;;;-19.38;64.09
59829;BME280;45708;51.848;107.620;2023-02-02T15:47:42;95571.72;;;-19.38;64.02
59829;BME280;45708;51.848;107.620;2023-02-02T15:52:46;95582.22;;;-19.18;63.85
59829;BME280;45708;51.848;107.620;2023-02-02T15:57:48;95574.47;;;-19.09;64.15
59829;BME280;45708;51.848;107.620;2023-02-02T16:03:13;95587.03;;;-19.07;64.21
59829;BME280;45708;51.848;107.620;2023-02-02T16:08:18;95579.38;;;-19.01;64.09
59829;BME280;45708;51.848;107.620;2023-02-02T16:13:27;95582.72;;;-19.00;64.53
59829;BME280;45708;51.848;107.620;2023-02-02T16:18:29;95584.38;;;-18.99;64.06
59829;BME280;45708;51.848;107.620;2023-02-02T16:23:33;95589.44;;;-19.02;64.50
59829;BME280;45708;51.848;107.620;2023-02-02T16:28:34;95590.16;;;-18.96;64.46
59829;BME280;45708;51.848;107.620;2023-02-02T16:33:43;95590.81;;;-18.88;64.84
59829;BME280;45708;51.848;107.620;2023-02-02T16:38:44;95584.81;;;-18.81;64.53
59829;BME280;45708;51.848;107.620;2023-02-02T16:43:45;95580.25;;;-18.65;64.72
59829;BME280;45708;51.848;107.620;2023-02-02T16:48:58;95530.28;;;-18.82;64.31
59829;BME280;45708;51.848;107.620;2023-02-02T16:59:16;95563.06;;;-18.48;64.43
59829;BME280;45708;51.848;107.620;2023-02-02T17:04:21;95578.03;;;-18.40;64.45
59829;BME280;45708;51.848;107.620;2023-02-02T17:14:29;95582.13;;;-18.36;64.56
59829;BME280;45708;51.848;107.620;2023-02-02T17:19:31;95593.28;;;-18.48;64.21
59829;BME280;45708;51.848;107.620;2023-02-02T17:24:32;95595.09;;;-18.53;64.72
59829;BME280;45708;51.848;107.620;2023-02-02T17:29:33;95597.38;;;-18.79;64.74
59829;BME280;45708;51.848;107.620;2023-02-02T17:34:34;95592.88;;;-19.06;64.43
59829;BME280;45708;51.848;107.620;2023-02-02T17:39:35;95597.16;;;-19.10;65.38
59829;BME280;45708;51.848;107.620;2023-02-02T17:44:36;95594.28;;;-19.35;64.59
59829;BME280;45708;51.848;107.620;2023-02-02T17:49:36;95584.50;;;-19.50;64.96
59829;BME280;45708;51.848;107.620;2023-02-02T17:54:37;95588.00;;;-19.56;64.65
59829;BME280;45708;51.848;107.620;2023-02-02T17:59:38;95590.59;;;-19.62;65.07
59829;BME280;45708;51.848;107.620;2023-02-02T18:04:39;95598.31;;;-19.69;65.21
59829;BME280;45708;51.848;107.620;2023-02-02T18:09:40;95595.09;;;-19.78;64.45
59829;BME280;45708;51.848;107.620;2023-02-02T18:14:41;95599.34;;;-19.80;64.64
59829;BME280;45708;51.848;107.620;2023-02-02T18:19:41;95601.72;;;-19.74;65.16
59829;BME280;45708;51.848;107.620;2023-02-02T18:24:42;95601.00;;;-19.79;64.66
59829;BME280;45708;51.848;107.620;2023-02-02T18:29:43;95597.69;;;-19.84;64.64
59829;BME280;45708;51.848;107.620;2023-02-02T18:34:44;95599.47;;;-19.89;64.78
59829;BME280;45708;51.848;107.620;2023-02-02T18:39:45;95589.38;;;-19.87;64.69
59829;BME280;45708;51.848;107.620;2023-02-02T18:44:46;95589.28;;;-19.80;64.68
59829;BME280;45708;51.848;107.620;2023-02-02T18:49:46;95585.00;;;-19.76;65.11
59829;BME280;45708;51.848;107.620;2023-02-02T18:54:47;95576.56;;;-19.72;64.60
59829;BME280;45708;51.848;107.620;2023-02-02T18:59:48;95576.56;;;-19.72;65.02
59829;BME280;45708;51.848;107.620;2023-02-02T19:04:49;95574.16;;;-19.78;65.38
59829;BME280;45708;51.848;107.620;2023-02-02T19:09:50;95579.16;;;-19.77;64.66
59829;BME280;45708;51.848;107.620;2023-02-02T19:14:51;95573.13;;;-19.68;65.16
59829;BME280;45708;51.848;107.620;2023-02-02T19:19:52;95568.84;;;-19.64;64.80
59829;BME280;45708;51.848;107.620;2023-02-02T19:24:53;95571.13;;;-19.52;65.32
59829;BME280;45708;51.848;107.620;2023-02-02T19:29:55;95573.53;;;-19.46;65.34
59829;BME280;45708;51.848;107.620;2023-02-02T19:34:57;95569.28;;;-19.44;65.07
59829;BME280;45708;51.848;107.620;2023-02-02T19:45:07;95573.44;;;-19.40;65.08
59829;BME280;45708;51.848;107.620;2023-02-02T19:50:27;95581.13;;;-19.49;65.68
59829;BME280;45708;51.848;107.620;2023-02-02T19:55:34;95581.25;;;-19.54;65.70
59829;BME280;45708;51.848;107.620;2023-02-02T20:00:35;95569.56;;;-19.56;65.69
59829;BME280;45708;51.848;107.620;2023-02-02T20:05:41;95582.28;;;-19.65;64.96
59829;BME280;45708;51.848;107.620;2023-02-02T20:10:42;95576.66;;;-19.77;65.75
59829;BME280;45708;51.848;107.620;2023-02-02T20:15:44;95576.94;;;-19.93;65.74
59829;BME280;45708;51.848;107.620;2023-02-02T20:20:56;95576.22;;;-20.03;65.71
59829;BME280;45708;51.848;107.620;2023-02-02T20:25:57;95567.94;;;-20.08;65.25
59829;BME280;45708;51.848;107.620;2023-02-02T20:31:01;95572.25;;;-20.15;65.55
59829;BME280;45708;51.848;107.620;2023-02-02T20:41:26;95558.19;;;-20.26;65.81
59829;BME280;45708;51.848;107.620;2023-02-02T20:46:26;95554.94;;;-20.32;65.46
59829;BME280;45708;51.848;107.620;2023-02-02T20:51:27;95552.00;;;-20.55;65.07
59829;BME280;45708;51.848;107.620;2023-02-02T20:56:28;95552.03;;;-20.58;65.42
59829;BME280;45708;51.848;107.620;2023-02-02T21:01:29;95550.50;;;-20.68;65.23
59829;BME280;45708;51.848;107.620;2023-02-02T21:06:30;95546.28;;;-20.66;65.80
59829;BME280;45708;51.848;107.620;2023-02-02T21:11:31;95548.84;;;-20.69;65.66
59829;BME280;45708;51.848;107.620;2023-02-02T21:16:32;95550.63;;;-20.76;65.41
59829;BME280;45708;51.848;107.620;2023-02-02T21:21:33;95549.97;;;-20.88;65.43
59829;BME280;45708;51.848;107.620;2023-02-02T21:26:34;95553.34;;;-20.91;65.56
59829;BME280;45708;51.848;107.620;2023-02-02T21:31:36;95554.13;;;-20.87;65.64
59829;BME280;45708;51.848;107.620;2023-02-02T21:36:42;95555.59;;;-20.73;65.42
59829;BME280;45708;51.848;107.620;2023-02-02T21:41:43;95546.59;;;-20.34;65.70
59829;BME280;45708;51.848;107.620;2023-02-02T21:46:46;95536.03;;;-20.03;65.49
59829;BME280;45708;51.848;107.620;2023-02-02T21:51:48;95553.75;;;-19.64;64.96
59829;BME280;45708;51.848;107.620;2023-02-02T21:56:50;95545.06;;;-19.48;64.89
59829;BME280;45708;51.848;107.620;2023-02-02T22:01:51;95552.44;;;-19.39;65.44
59829;BME280;45708;51.848;107.620;2023-02-02T22:06:56;95546.41;;;-19.32;65.72
59829;BME280;45708;51.848;107.620;2023-02-02T22:12:00;95536.28;;;-19.29;65.97
59829;BME280;45708;51.848;107.620;2023-02-02T22:22:14;95520.56;;;-19.38;65.62
59829;BME280;45708;51.848;107.620;2023-02-02T22:27:21;95536.34;;;-19.32;66.02
59829;BME280;45708;51.848;107.620;2023-02-02T22:32:22;95536.66;;;-19.47;66.09
59829;BME280;45708;51.848;107.620;2023-02-02T22:37:23;95544.38;;;-19.55;65.91
59829;BME280;45708;51.848;107.620;2023-02-02T22:42:24;95538.75;;;-19.67;66.33
59829;BME280;45708;51.848;107.620;2023-02-02T22:47:24;95544.84;;;-19.79;66.35
59829;BME280;45708;51.848;107.620;2023-02-02T22:52:25;95538.03;;;-19.74;65.82
59829;BME280;45708;51.848;107.620;2023-02-02T22:57:26;95537.41;;;-19.87;66.03
59829;BME280;45708;51.848;107.620;2023-02-02T23:02:27;95538.44;;;-19.97;66.62
59829;BME280;45708;51.848;107.620;2023-02-02T23:07:27;95535.06;;;-19.96;66.47
59829;BME280;45708;51.848;107.620;2023-02-02T23:12:28;95538.34;;;-19.91;66.42
59829;BME280;45708;51.848;107.620;2023-02-02T23:17:29;95538.28;;;-19.88;65.96
59829;BME280;45708;51.848;107.620;2023-02-02T23:22:30;95540.72;;;-19.85;66.47
59829;BME280;45708;51.848;107.620;2023-02-02T23:27:31;95527.41;;;-19.90;65.88
59829;BME280;45708;51.848;107.620;2023-02-02T23:32:33;95537.31;;;-19.81;65.85
59829;BME280;45708;51.848;107.620;2023-02-02T23:37:33;95525.63;;;-19.85;66.14
59829;BME280;45708;51.848;107.620;2023-02-02T23:42:34;95528.94;;;-19.83;66.56
59829;BME280;45708;51.848;107.620;2023-02-02T23:47:35;95515.56;;;-19.82;66.70
59829;BME280;45708;51.848;107.620;2023-02-02T23:52:36;95517.00;;;-19.70;66.26
59829;BME280;45708;51.848;107.620;2023-02-02T23:57:37;95523.56;;;-19.61;66.64
